This is the latest recevied weather packets stored in our database for station/object N5VIS. If no packets are shown the sender has not sent any weather packets the latest 10 day(s).
| Time | Temp. | Humidity | Pressure | Rain* | Wind** | Luminosity | Snow |
|---|---|---|---|---|---|---|---|
| 1777875203 | 18.89° C | 72% | 1019.1 hPa | 0 mm | - | - | - |
| 1777874900 | 18.89° C | 70% | 1019.1 hPa | 0 mm | - | - | - |
| 1777874596 | 18.89° C | 72% | 1019.3 hPa | 0 mm | - | - | - |
| 1777874294 | 18.89° C | 72% | 1019.5 hPa | 0 mm | - | - | - |
| 1777873991 | 18.89° C | 73% | 1019.3 hPa | 0 mm | - | - | - |
| 1777873688 | 18.89° C | 72% | 1019.5 hPa | 0 mm | - | - | - |
| 1777873386 | 18.89° C | 73% | 1019.5 hPa | 0 mm | - | - | - |
| 1777873082 | 18.89° C | 71% | 1019.5 hPa | 0 mm | - | - | - |
| 1777872778 | 18.89° C | 70% | 1019.3 hPa | 0 mm | - | - | - |
| 1777872475 | 18.89° C | 69% | 1019.6 hPa | 0 mm | - | - | - |
| 1777872174 | 18.89° C | 69% | 1019.6 hPa | 0 mm | - | - | - |
| 1777871871 | 18.89° C | 68% | 1019.6 hPa | 0 mm | - | - | - |
| 1777871567 | 19.44° C | 68% | 1019.4 hPa | 0 mm | - | - | - |
| 1777871263 | 19.44° C | 67% | 1019.6 hPa | 0 mm | - | - | - |
| 1777870962 | 18.89° C | 67% | 1019.6 hPa | 0 mm | - | - | - |
| 1777870659 | 18.33° C | 73% | 1019.6 hPa | 0 mm | - | - | - |
| 1777870359 | 17.78° C | 77% | 1019.5 hPa | 0 mm | - | - | - |
| 1777870057 | 18.33° C | 75% | 1019.3 hPa | 0 mm | - | - | - |
| 1777869754 | 18.33° C | 72% | 1019.3 hPa | 0 mm | - | - | - |
| 1777869451 | 20° C | 69% | 1019.3 hPa | 0 mm | - | - | - |
| 1777869148 | 20° C | 65% | 1019.4 hPa | 0 mm | - | - | - |
| 1777868845 | 20° C | 68% | 1019.1 hPa | 0 mm | - | - | - |
| 1777868542 | 20° C | 68% | 1019.3 hPa | 0 mm | - | - | - |
| 1777868238 | 20° C | 67% | 1019.3 hPa | 0 mm | - | - | - |
| 1777867934 | 20° C | 66% | 1019.1 hPa | 0 mm | - | - | - |
* Rain latest hour (hover to see other rain measurements)
** Current wind speed in m/s (hover to see current wind gust speed)